createdAt,value
2023-05-29T00:00:01.860Z,14.49
2023-05-29T00:02:30.711Z,14.43
2023-05-29T00:04:59.319Z,14.42
2023-05-29T00:07:29.391Z,14.40
2023-05-29T00:09:57.858Z,14.37
2023-05-29T00:12:26.452Z,14.31
2023-05-29T00:14:54.777Z,14.31
2023-05-29T00:17:23.159Z,14.29
2023-05-29T00:19:51.703Z,14.29
2023-05-29T00:22:20.301Z,14.34
2023-05-29T00:24:49.987Z,14.39
2023-05-29T00:27:18.324Z,14.41
2023-05-29T00:29:47.295Z,14.43
2023-05-29T00:32:15.645Z,14.47
2023-05-29T00:34:43.980Z,14.49
2023-05-29T00:37:12.374Z,14.57
2023-05-29T00:39:40.821Z,14.62
2023-05-29T00:42:10.733Z,14.63
2023-05-29T00:44:39.140Z,14.52
2023-05-29T00:47:07.921Z,14.41
2023-05-29T00:49:38.041Z,14.32
2023-05-29T00:52:08.670Z,14.24
2023-05-29T00:54:37.469Z,14.17
2023-05-29T00:57:07.763Z,14.08
2023-05-29T00:59:37.589Z,13.95
2023-05-29T01:02:07.126Z,13.90
2023-05-29T01:04:36.034Z,13.88
2023-05-29T01:07:05.028Z,13.88
2023-05-29T01:09:35.308Z,13.86
2023-05-29T01:12:12.887Z,13.89
2023-05-29T01:14:50.314Z,13.93
2023-05-29T01:17:25.551Z,14.06
2023-05-29T01:20:14.766Z,14.15
2023-05-29T01:23:04.441Z,14.19
2023-05-29T01:25:44.493Z,14.16
2023-05-29T01:28:15.227Z,14.09
2023-05-29T01:30:45.073Z,14.06
2023-05-29T01:33:13.800Z,14.05
2023-05-29T01:35:42.147Z,14.01
2023-05-29T01:38:10.506Z,13.97
2023-05-29T01:40:39.506Z,13.95
2023-05-29T01:43:08.513Z,13.98
2023-05-29T01:45:38.752Z,13.92
2023-05-29T01:48:07.922Z,13.84
2023-05-29T01:50:37.192Z,13.82
2023-05-29T01:53:05.921Z,13.77
2023-05-29T01:55:34.428Z,13.70
2023-05-29T01:58:03.960Z,13.62
2023-05-29T02:00:32.431Z,13.56
2023-05-29T02:03:03.157Z,13.50
2023-05-29T02:05:31.628Z,13.47
2023-05-29T02:08:00.050Z,13.45
2023-05-29T02:10:28.442Z,13.43
2023-05-29T02:12:58.320Z,13.42
2023-05-29T02:15:26.672Z,13.39
2023-05-29T02:17:55.053Z,13.36
2023-05-29T02:20:24.797Z,13.35
2023-05-29T02:22:53.230Z,13.27
2023-05-29T02:25:21.569Z,13.32
2023-05-29T02:27:49.899Z,13.27
2023-05-29T02:30:18.316Z,13.24
2023-05-29T02:32:46.830Z,13.22
2023-05-29T02:35:16.125Z,13.20
2023-05-29T02:37:46.937Z,13.16
2023-05-29T02:40:15.516Z,13.13
2023-05-29T02:42:43.885Z,13.07
2023-05-29T02:45:12.767Z,13.04
2023-05-29T02:47:41.199Z,12.99
2023-05-29T02:50:10.416Z,12.96
2023-05-29T02:52:38.866Z,12.90
2023-05-29T02:55:09.386Z,12.87
2023-05-29T02:57:37.847Z,12.88
2023-05-29T03:00:09.048Z,12.82
2023-05-29T03:02:37.617Z,12.78
2023-05-29T03:05:07.644Z,12.76
2023-05-29T03:07:36.063Z,12.71
2023-05-29T03:10:05.419Z,12.69
2023-05-29T03:12:35.130Z,12.63
2023-05-29T03:15:03.488Z,12.60
2023-05-29T03:17:31.947Z,12.57
2023-05-29T03:20:00.387Z,12.55
2023-05-29T03:22:28.756Z,12.46
2023-05-29T03:24:57.297Z,12.39
2023-05-29T03:27:25.617Z,12.36
2023-05-29T03:29:55.803Z,12.38
2023-05-29T03:32:24.322Z,12.34
2023-05-29T03:34:52.771Z,12.29
2023-05-29T03:37:21.112Z,12.23
2023-05-29T03:39:49.487Z,12.23
2023-05-29T03:42:17.840Z,12.21
2023-05-29T03:44:46.161Z,12.19
2023-05-29T03:47:15.988Z,12.16
2023-05-29T03:49:44.433Z,12.16
2023-05-29T03:52:12.848Z,12.16
2023-05-29T03:54:41.210Z,12.17
2023-05-29T03:57:10.003Z,12.15
2023-05-29T03:59:38.404Z,12.19
2023-05-29T04:02:07.822Z,12.21
2023-05-29T04:04:37.742Z,12.22
2023-05-29T04:07:06.204Z,12.25
2023-05-29T04:09:34.869Z,12.28
2023-05-29T04:12:04.315Z,12.27
2023-05-29T04:14:32.641Z,12.30
2023-05-29T04:17:01.168Z,12.30
2023-05-29T04:19:29.534Z,12.34
2023-05-29T04:21:59.353Z,12.36
2023-05-29T04:24:27.742Z,12.38
2023-05-29T04:26:56.074Z,12.42
2023-05-29T04:29:24.419Z,12.50
2023-05-29T04:31:52.768Z,12.56
2023-05-29T04:34:21.485Z,12.59
2023-05-29T04:36:50.244Z,12.66
2023-05-29T04:39:23.162Z,12.70
2023-05-29T04:41:52.307Z,12.73
2023-05-29T04:44:20.694Z,12.77
2023-05-29T04:46:49.683Z,12.83
2023-05-29T04:49:18.114Z,12.87
2023-05-29T04:51:47.426Z,12.90
2023-05-29T04:54:15.930Z,12.97
2023-05-29T04:56:45.633Z,13.00
2023-05-29T04:59:14.328Z,13.05
2023-05-29T05:01:44.339Z,13.12
2023-05-29T05:04:13.063Z,13.14
2023-05-29T05:06:41.448Z,13.21
2023-05-29T05:09:09.779Z,13.26
2023-05-29T05:11:38.149Z,13.30
2023-05-29T05:14:07.911Z,13.33
2023-05-29T05:16:36.368Z,13.39
2023-05-29T05:19:04.727Z,13.48
2023-05-29T05:21:33.986Z,13.47
2023-05-29T05:24:02.411Z,13.50
2023-05-29T05:26:30.771Z,13.53
2023-05-29T05:28:59.190Z,13.57
2023-05-29T05:31:29.079Z,13.60
2023-05-29T05:33:57.485Z,13.61
2023-05-29T05:36:26.097Z,13.63
2023-05-29T05:38:54.464Z,13.66
2023-05-29T05:41:23.272Z,13.69
2023-05-29T05:43:52.131Z,13.71
2023-05-29T05:46:20.553Z,13.77
2023-05-29T05:48:50.355Z,13.81
2023-05-29T05:51:18.990Z,13.86
2023-05-29T05:53:47.535Z,13.92
2023-05-29T05:56:15.878Z,13.97
2023-05-29T05:58:44.311Z,13.97
2023-05-29T06:01:12.714Z,14.06
2023-05-29T06:03:41.420Z,14.11
2023-05-29T06:06:11.664Z,14.20
2023-05-29T06:08:41.557Z,14.23
2023-05-29T06:11:09.999Z,14.26
2023-05-29T06:13:38.430Z,14.33
2023-05-29T06:16:07.136Z,14.39
2023-05-29T06:18:35.643Z,14.44
2023-05-29T06:21:04.389Z,14.53
2023-05-29T06:23:34.746Z,14.61
2023-05-29T06:26:03.127Z,14.69
2023-05-29T06:28:31.997Z,14.77
2023-05-29T06:31:00.365Z,14.84
2023-05-29T06:33:28.725Z,14.96
2023-05-29T06:35:57.652Z,15.03
2023-05-29T06:38:26.017Z,15.12
2023-05-29T06:40:55.853Z,15.18
2023-05-29T06:43:24.322Z,15.20
2023-05-29T06:45:52.772Z,15.26
2023-05-29T06:48:21.904Z,15.31
2023-05-29T06:50:50.524Z,15.40
2023-05-29T06:53:18.946Z,15.44
2023-05-29T06:55:47.385Z,15.55
2023-05-29T06:58:17.084Z,15.65
2023-05-29T07:00:45.558Z,15.72
2023-05-29T07:03:14.062Z,15.80
2023-05-29T07:05:42.474Z,15.89
2023-05-29T07:08:10.992Z,15.95
2023-05-29T07:10:39.320Z,16.05
2023-05-29T07:13:08.198Z,16.16
2023-05-29T07:15:39.613Z,16.29
2023-05-29T07:18:08.014Z,16.32
2023-05-29T07:20:39.054Z,16.36
2023-05-29T07:23:07.947Z,16.37
2023-05-29T07:25:36.424Z,16.41
2023-05-29T07:28:18.218Z,16.48
2023-05-29T07:30:51.644Z,16.49
2023-05-29T07:33:20.130Z,16.52
2023-05-29T07:35:48.552Z,16.50
2023-05-29T07:38:17.578Z,16.55
2023-05-29T07:40:46.069Z,16.62
2023-05-29T07:43:14.589Z,16.70
2023-05-29T07:45:42.979Z,16.82
2023-05-29T07:48:13.230Z,16.85
2023-05-29T07:50:41.614Z,16.89
2023-05-29T07:53:09.964Z,16.97
2023-05-29T07:55:38.333Z,17.06
2023-05-29T07:58:06.726Z,17.09
2023-05-29T08:00:35.209Z,17.17
2023-05-29T08:03:04.795Z,17.24
2023-05-29T08:05:34.583Z,17.28
2023-05-29T08:08:02.975Z,17.27
2023-05-29T08:10:31.355Z,17.27
2023-05-29T08:12:59.713Z,17.38
2023-05-29T08:15:28.077Z,17.43
2023-05-29T08:17:56.484Z,17.53
2023-05-29T08:20:24.961Z,17.59
2023-05-29T08:22:54.709Z,17.66
2023-05-29T08:25:23.098Z,17.70
2023-05-29T08:27:51.480Z,17.70
2023-05-29T08:30:19.836Z,17.75
2023-05-29T08:32:48.413Z,17.69
2023-05-29T08:35:17.428Z,17.67
2023-05-29T08:37:45.848Z,17.61
2023-05-29T08:40:15.927Z,17.68
2023-05-29T08:42:49.007Z,17.82
2023-05-29T08:45:20.896Z,17.80
2023-05-29T08:47:53.740Z,17.86
2023-05-29T08:50:22.839Z,18.03
2023-05-29T08:52:52.004Z,18.12
2023-05-29T08:55:21.948Z,18.19
2023-05-29T08:57:50.856Z,18.23
2023-05-29T09:00:21.371Z,18.29
2023-05-29T09:02:50.517Z,18.37
2023-05-29T09:05:19.564Z,18.38
2023-05-29T09:07:48.505Z,18.40
2023-05-29T09:10:17.500Z,18.33
2023-05-29T09:12:49.417Z,18.45
2023-05-29T09:15:22.288Z,18.41
2023-05-29T09:17:54.130Z,18.41
2023-05-29T09:20:25.179Z,18.46
2023-05-29T09:22:57.934Z,18.48
2023-05-29T09:25:28.131Z,18.58
2023-05-29T09:28:03.831Z,18.63
2023-05-29T09:30:38.812Z,18.64
2023-05-29T09:33:08.131Z,18.81
2023-05-29T09:35:38.096Z,18.98
2023-05-29T09:38:07.326Z,19.06
2023-05-29T09:40:37.611Z,19.01
2023-05-29T09:43:11.845Z,19.01
2023-05-29T09:45:41.513Z,19.07
2023-05-29T09:48:14.048Z,19.15
2023-05-29T09:50:44.820Z,19.25
2023-05-29T09:53:21.296Z,19.25
2023-05-29T09:55:49.969Z,19.32
2023-05-29T09:58:20.421Z,19.24
2023-05-29T10:00:49.623Z,19.24
2023-05-29T10:03:19.010Z,19.12
2023-05-29T10:05:51.624Z,19.18
2023-05-29T10:08:22.387Z,19.27
2023-05-29T10:10:57.280Z,19.39
2023-05-29T10:13:33.132Z,19.50
2023-05-29T10:16:05.365Z,19.56
2023-05-29T10:18:40.552Z,19.60
2023-05-29T10:21:09.802Z,19.67
2023-05-29T10:23:40.156Z,19.67
2023-05-29T10:26:14.923Z,19.48
2023-05-29T10:28:50.203Z,19.74
2023-05-29T10:31:24.672Z,19.76
2023-05-29T10:34:05.612Z,19.69
2023-05-29T10:36:41.701Z,19.47
2023-05-29T10:39:10.305Z,19.42
2023-05-29T10:41:41.722Z,19.68
2023-05-29T10:44:45.939Z,20.13
2023-05-29T10:47:25.350Z,20.56
2023-05-29T10:49:53.875Z,20.65
2023-05-29T10:52:23.405Z,20.53
2023-05-29T10:54:58.092Z,20.41
2023-05-29T10:57:27.504Z,20.43
2023-05-29T11:00:07.652Z,20.46
2023-05-29T11:02:41.340Z,20.68
2023-05-29T11:05:23.590Z,20.70
2023-05-29T11:07:58.244Z,20.47
2023-05-29T11:10:58.007Z,20.42
2023-05-29T11:13:28.211Z,20.64
2023-05-29T11:16:14.165Z,20.88
2023-05-29T11:18:47.285Z,21.21
2023-05-29T11:21:31.475Z,21.26
2023-05-29T11:24:06.775Z,21.43
2023-05-29T11:26:39.478Z,20.99
2023-05-29T11:29:11.825Z,21.03
2023-05-29T11:31:41.989Z,20.93
2023-05-29T11:34:17.028Z,20.86
2023-05-29T11:36:46.775Z,20.94
2023-05-29T11:39:16.070Z,21.02
2023-05-29T11:41:44.503Z,21.15
2023-05-29T11:44:15.982Z,21.24
2023-05-29T11:46:44.344Z,21.75
2023-05-29T11:49:14.469Z,22.09
2023-05-29T11:51:45.165Z,22.10
2023-05-29T11:54:14.588Z,21.66
2023-05-29T11:56:43.037Z,21.48
2023-05-29T11:59:13.181Z,21.35
2023-05-29T12:01:41.571Z,21.61
2023-05-29T12:04:18.180Z,21.87
2023-05-29T12:06:46.550Z,22.06
2023-05-29T12:09:26.998Z,22.15
2023-05-29T12:11:56.288Z,22.52
2023-05-29T12:14:24.668Z,22.65
2023-05-29T12:16:53.150Z,22.53
2023-05-29T12:19:23.064Z,22.59
2023-05-29T12:21:51.482Z,22.62
2023-05-29T12:24:23.014Z,22.96
2023-05-29T12:26:53.238Z,22.66
2023-05-29T12:29:22.018Z,22.70
2023-05-29T12:32:00.039Z,22.14
2023-05-29T12:34:37.680Z,21.91
2023-05-29T12:37:11.378Z,21.75
2023-05-29T12:39:41.186Z,21.62
2023-05-29T12:42:09.941Z,21.30
2023-05-29T12:44:39.749Z,21.33
2023-05-29T12:47:08.741Z,21.45
2023-05-29T12:49:39.701Z,21.92
2023-05-29T12:52:11.143Z,22.03
2023-05-29T12:54:40.259Z,22.22
2023-05-29T12:57:09.257Z,22.15
2023-05-29T12:59:37.686Z,21.87
2023-05-29T13:02:08.104Z,22.07
2023-05-29T13:04:36.697Z,22.25
2023-05-29T13:07:07.541Z,22.13
2023-05-29T13:09:35.901Z,22.10
2023-05-29T13:12:04.440Z,22.15
2023-05-29T13:14:32.786Z,22.42
2023-05-29T13:17:01.184Z,22.53
2023-05-29T13:19:29.538Z,22.56
2023-05-29T13:21:58.388Z,23.01
2023-05-29T13:24:28.099Z,22.79
2023-05-29T13:26:56.472Z,22.99
2023-05-29T13:29:24.877Z,23.34
2023-05-29T13:31:53.239Z,23.44
2023-05-29T13:34:23.978Z,23.39
2023-05-29T13:36:52.362Z,23.07
2023-05-29T13:39:20.790Z,23.36
2023-05-29T13:41:50.706Z,22.98
2023-05-29T13:44:19.141Z,22.69
2023-05-29T13:46:47.505Z,22.55
2023-05-29T13:49:15.887Z,22.27
2023-05-29T13:51:46.445Z,22.49
2023-05-29T13:54:15.201Z,22.68
2023-05-29T13:56:45.017Z,22.88
2023-05-29T13:59:16.012Z,22.85
2023-05-29T14:01:44.540Z,22.60
2023-05-29T14:04:13.242Z,22.76
2023-05-29T14:06:41.601Z,23.02
2023-05-29T14:09:11.027Z,23.10
2023-05-29T14:11:39.434Z,22.87
2023-05-29T14:14:08.093Z,22.21
2023-05-29T14:16:39.699Z,22.66
2023-05-29T14:19:08.614Z,22.68
2023-05-29T14:21:37.476Z,22.86
2023-05-29T14:24:06.306Z,22.87
2023-05-29T14:26:34.786Z,22.92
2023-05-29T14:29:13.446Z,23.01
2023-05-29T14:31:45.454Z,22.69
2023-05-29T14:34:14.486Z,22.91
2023-05-29T14:36:45.550Z,23.29
2023-05-29T14:39:14.342Z,23.33
2023-05-29T14:41:42.695Z,22.89
2023-05-29T14:44:12.572Z,22.58
2023-05-29T14:46:41.696Z,22.49
2023-05-29T14:49:11.567Z,22.28
2023-05-29T14:51:40.255Z,22.27
2023-05-29T14:54:10.326Z,22.50
2023-05-29T14:56:38.683Z,22.84
2023-05-29T14:59:07.067Z,22.85
2023-05-29T15:01:35.636Z,22.94
2023-05-29T15:04:04.901Z,22.70
2023-05-29T15:06:35.016Z,22.38
2023-05-29T15:09:03.716Z,22.36
2023-05-29T15:11:32.549Z,22.43
2023-05-29T15:14:01.300Z,22.02
2023-05-29T15:16:30.324Z,22.06
2023-05-29T15:18:58.765Z,21.88
2023-05-29T15:21:27.169Z,22.05
2023-05-29T15:23:56.914Z,22.20
2023-05-29T15:26:25.823Z,22.53
2023-05-29T15:28:54.157Z,22.88
2023-05-29T15:31:23.653Z,22.79
2023-05-29T15:33:52.138Z,22.60
2023-05-29T15:36:21.976Z,22.55
2023-05-29T15:38:50.405Z,22.47
2023-05-29T15:41:20.326Z,22.12
2023-05-29T15:43:48.790Z,21.71
2023-05-29T15:46:17.310Z,21.62
2023-05-29T15:48:45.673Z,21.73
2023-05-29T15:51:14.262Z,21.57
2023-05-29T15:53:42.664Z,21.42
2023-05-29T15:56:11.067Z,21.47
2023-05-29T15:58:40.902Z,21.53
2023-05-29T16:01:09.325Z,21.72
2023-05-29T16:03:37.928Z,21.62
2023-05-29T16:06:06.499Z,21.53
2023-05-29T16:08:35.027Z,21.34
2023-05-29T16:11:04.410Z,21.38
2023-05-29T16:13:34.173Z,21.38
2023-05-29T16:16:04.778Z,21.36
2023-05-29T16:18:33.279Z,21.19
2023-05-29T16:21:01.772Z,21.03
2023-05-29T16:23:30.129Z,20.85
2023-05-29T16:25:58.562Z,20.94
2023-05-29T16:28:27.005Z,20.95
2023-05-29T16:30:55.982Z,20.86
2023-05-29T16:33:26.130Z,20.85
2023-05-29T16:35:54.729Z,20.86
2023-05-29T16:38:23.381Z,20.80
2023-05-29T16:40:51.898Z,20.69
2023-05-29T16:43:20.227Z,20.73
2023-05-29T16:45:48.643Z,20.74
2023-05-29T16:48:17.260Z,20.78
2023-05-29T16:50:47.048Z,20.78
2023-05-29T16:53:15.459Z,20.81
2023-05-29T16:55:44.073Z,20.87
2023-05-29T16:58:12.497Z,20.94
2023-05-29T17:00:41.008Z,20.88
2023-05-29T17:03:09.681Z,20.84
2023-05-29T17:05:38.262Z,20.87
2023-05-29T17:08:11.005Z,20.82
2023-05-29T17:10:40.028Z,20.79
2023-05-29T17:13:08.514Z,20.75
2023-05-29T17:15:37.076Z,20.73
2023-05-29T17:18:06.032Z,20.67
2023-05-29T17:20:36.783Z,20.64
2023-05-29T17:23:05.310Z,20.54
2023-05-29T17:25:35.539Z,20.45
2023-05-29T17:28:04.007Z,20.40
2023-05-29T17:30:32.461Z,20.34
2023-05-29T17:33:04.096Z,20.29
2023-05-29T17:35:33.138Z,20.25
2023-05-29T17:38:02.934Z,20.24
2023-05-29T17:40:31.424Z,20.17
2023-05-29T17:43:01.428Z,20.13
2023-05-29T17:45:29.833Z,20.09
2023-05-29T17:47:58.343Z,20.03
2023-05-29T17:50:26.829Z,19.99
2023-05-29T17:52:55.982Z,19.96
2023-05-29T17:55:25.214Z,19.88
2023-05-29T17:57:53.603Z,19.79
2023-05-29T18:00:23.988Z,19.76
2023-05-29T18:02:52.661Z,19.72
2023-05-29T18:05:21.356Z,19.65
2023-05-29T18:07:49.898Z,19.68
2023-05-29T18:10:21.834Z,19.64
2023-05-29T18:12:51.290Z,19.56
2023-05-29T18:15:20.255Z,19.49
2023-05-29T18:17:50.103Z,19.47
2023-05-29T18:20:19.874Z,19.36
2023-05-29T18:22:48.609Z,19.35
2023-05-29T18:25:18.135Z,19.27
2023-05-29T18:27:46.966Z,19.12
2023-05-29T18:30:15.663Z,19.04
2023-05-29T18:32:44.117Z,18.98
2023-05-29T18:35:14.199Z,18.92
2023-05-29T18:37:42.566Z,18.87
2023-05-29T18:40:12.032Z,18.82
2023-05-29T18:42:40.400Z,18.73
2023-05-29T18:45:09.716Z,18.65
2023-05-29T18:47:38.192Z,18.63
2023-05-29T18:50:07.797Z,18.57
2023-05-29T18:52:37.679Z,18.54
2023-05-29T18:55:06.764Z,18.54
2023-05-29T18:57:35.197Z,18.50
2023-05-29T19:00:03.791Z,18.46
2023-05-29T19:02:32.539Z,18.35
2023-05-29T19:05:01.182Z,18.31
2023-05-29T19:07:29.643Z,18.20
2023-05-29T19:09:59.373Z,18.16
2023-05-29T19:12:27.774Z,18.09
2023-05-29T19:14:56.931Z,18.04
2023-05-29T19:17:25.371Z,17.93
2023-05-29T19:19:53.777Z,17.92
2023-05-29T19:22:22.756Z,17.86
2023-05-29T19:24:51.357Z,17.79
2023-05-29T19:27:21.490Z,17.75
2023-05-29T19:29:50.795Z,17.65
2023-05-29T19:32:21.339Z,17.65
2023-05-29T19:34:52.323Z,17.66
2023-05-29T19:37:21.134Z,17.61
2023-05-29T19:39:53.340Z,17.57
2023-05-29T19:42:25.036Z,17.51
2023-05-29T19:44:54.113Z,17.42
2023-05-29T19:47:22.659Z,17.44
2023-05-29T19:49:51.358Z,17.31
2023-05-29T19:52:19.811Z,17.26
2023-05-29T19:54:48.317Z,17.18
2023-05-29T19:57:17.143Z,17.12
2023-05-29T19:59:49.582Z,17.07
2023-05-29T20:02:18.134Z,17.00
2023-05-29T20:04:47.028Z,16.95
2023-05-29T20:07:15.554Z,16.90
2023-05-29T20:09:43.962Z,16.84
2023-05-29T20:12:12.451Z,16.78
2023-05-29T20:14:40.921Z,16.73
2023-05-29T20:17:10.851Z,16.68
2023-05-29T20:19:40.766Z,16.65
2023-05-29T20:22:09.233Z,16.63
2023-05-29T20:24:37.606Z,16.57
2023-05-29T20:27:07.203Z,16.54
2023-05-29T20:29:36.752Z,16.50
2023-05-29T20:32:06.372Z,16.49
2023-05-29T20:34:36.344Z,16.50
2023-05-29T20:37:05.262Z,16.46
2023-05-29T20:39:35.930Z,16.43
2023-05-29T20:42:05.374Z,16.36
2023-05-29T20:44:34.654Z,16.33
2023-05-29T20:47:03.871Z,16.25
2023-05-29T20:49:32.321Z,16.17
2023-05-29T20:52:02.317Z,16.11
2023-05-29T20:54:31.431Z,16.07
2023-05-29T20:56:59.859Z,16.05
2023-05-29T20:59:28.297Z,16.00
2023-05-29T21:01:57.086Z,15.97
2023-05-29T21:04:25.575Z,15.94
2023-05-29T21:06:53.983Z,15.91
2023-05-29T21:09:23.981Z,15.88
2023-05-29T21:11:52.490Z,15.84
2023-05-29T21:14:24.285Z,15.82
2023-05-29T21:16:52.742Z,15.77
2023-05-29T21:19:21.653Z,15.71
2023-05-29T21:21:50.055Z,15.66
2023-05-29T21:24:18.645Z,15.62
2023-05-29T21:26:48.448Z,15.58
2023-05-29T21:29:16.944Z,15.52
2023-05-29T21:31:45.883Z,15.50
2023-05-29T21:34:14.300Z,15.46
2023-05-29T21:36:42.688Z,15.41
2023-05-29T21:39:11.042Z,15.39
2023-05-29T21:41:39.607Z,15.35
2023-05-29T21:44:09.397Z,15.30
2023-05-29T21:46:37.839Z,15.26
2023-05-29T21:49:06.543Z,15.23
2023-05-29T21:51:35.903Z,15.24
2023-05-29T21:54:04.475Z,15.22
2023-05-29T21:56:33.085Z,15.17
2023-05-29T21:59:01.520Z,15.11
2023-05-29T22:01:31.433Z,15.02
2023-05-29T22:04:00.118Z,14.95
2023-05-29T22:06:28.661Z,14.85
2023-05-29T22:08:57.060Z,14.75
2023-05-29T22:11:27.027Z,14.67
2023-05-29T22:13:55.481Z,14.62
2023-05-29T22:16:24.006Z,14.56
2023-05-29T22:19:04.494Z,14.52
2023-05-29T22:21:34.426Z,14.48
2023-05-29T22:24:03.841Z,14.44
2023-05-29T22:26:33.002Z,14.37
2023-05-29T22:29:01.384Z,14.36
2023-05-29T22:31:29.977Z,14.33
2023-05-29T22:34:00.187Z,14.25
2023-05-29T22:36:28.743Z,14.13
2023-05-29T22:38:57.445Z,14.19
2023-05-29T22:41:25.934Z,14.15
2023-05-29T22:43:54.368Z,14.10
2023-05-29T22:46:22.996Z,14.12
2023-05-29T22:48:54.232Z,14.17
2023-05-29T22:51:26.185Z,14.19
2023-05-29T22:53:54.668Z,14.22
2023-05-29T22:56:23.025Z,14.14
2023-05-29T22:58:51.477Z,14.03
2023-05-29T23:01:19.867Z,13.96
2023-05-29T23:03:48.721Z,13.89
2023-05-29T23:06:17.227Z,13.82
2023-05-29T23:08:47.046Z,13.83
2023-05-29T23:11:15.749Z,13.78
2023-05-29T23:13:44.199Z,13.78
2023-05-29T23:16:13.486Z,13.68
2023-05-29T23:18:41.843Z,13.66
2023-05-29T23:21:10.158Z,13.64
2023-05-29T23:23:38.552Z,13.61
2023-05-29T23:26:08.231Z,13.58
2023-05-29T23:28:36.774Z,13.56
2023-05-29T23:31:05.166Z,13.51
2023-05-29T23:33:33.713Z,13.45
2023-05-29T23:36:02.016Z,13.39
2023-05-29T23:38:30.820Z,13.36
2023-05-29T23:40:59.414Z,13.34
2023-05-29T23:43:29.440Z,13.31
2023-05-29T23:45:57.816Z,13.31
2023-05-29T23:48:26.170Z,13.32
2023-05-29T23:50:54.590Z,13.31
2023-05-29T23:53:22.936Z,13.30
2023-05-29T23:55:51.318Z,13.27
2023-05-29T23:58:19.645Z,13.28
